createdAt,value
2019-05-22T00:00:52.192Z,13.90
2019-05-22T00:02:17.063Z,13.90
2019-05-22T00:03:23.484Z,14.00
2019-05-22T00:04:30.259Z,13.90
2019-05-22T00:05:34.347Z,13.90
2019-05-22T00:06:41.019Z,13.90
2019-05-22T00:07:44.615Z,13.90
2019-05-22T00:08:49.706Z,13.90
2019-05-22T00:09:54.346Z,13.90
2019-05-22T00:11:00.939Z,13.90
2019-05-22T00:12:06.333Z,13.90
2019-05-22T00:13:13.111Z,13.90
2019-05-22T00:14:15.799Z,13.90
2019-05-22T00:15:20.698Z,13.90
2019-05-22T00:16:23.873Z,13.90
2019-05-22T00:17:30.051Z,13.90
2019-05-22T00:18:33.114Z,13.90
2019-05-22T00:19:36.422Z,13.90
2019-05-22T00:20:40.773Z,13.90
2019-05-22T00:21:45.562Z,13.90
2019-05-22T00:22:50.246Z,13.90
2019-05-22T00:23:54.260Z,13.90
2019-05-22T00:25:00.013Z,13.90
2019-05-22T00:26:02.431Z,13.90
2019-05-22T00:27:05.988Z,13.80
2019-05-22T00:28:09.872Z,13.80
2019-05-22T00:29:13.385Z,13.80
2019-05-22T00:30:17.531Z,13.80
2019-05-22T00:31:19.930Z,13.80
2019-05-22T00:32:24.418Z,13.80
2019-05-22T00:33:30.604Z,13.80
2019-05-22T00:34:35.086Z,13.80
2019-05-22T00:35:39.171Z,13.80
2019-05-22T00:36:41.558Z,13.80
2019-05-22T00:37:45.388Z,13.80
2019-05-22T00:38:49.286Z,13.80
2019-05-22T00:39:52.194Z,13.80
2019-05-22T00:40:57.213Z,13.80
2019-05-22T00:42:01.075Z,13.80
2019-05-22T00:43:10.574Z,13.80
2019-05-22T00:44:12.178Z,13.80
2019-05-22T00:45:14.611Z,13.80
2019-05-22T00:46:19.835Z,13.80
2019-05-22T00:47:24.124Z,13.80
2019-05-22T00:48:28.321Z,13.80
2019-05-22T00:49:32.796Z,13.80
2019-05-22T00:51:00.349Z,13.80
2019-05-22T00:52:22.445Z,13.80
2019-05-22T00:53:51.317Z,13.80
2019-05-22T00:54:57.839Z,13.80
2019-05-22T00:56:15.911Z,13.80
2019-05-22T00:57:31.782Z,13.80
2019-05-22T00:58:37.928Z,13.80
2019-05-22T00:59:41.894Z,13.80
2019-05-22T01:01:03.179Z,13.90
2019-05-22T01:02:08.227Z,13.90
2019-05-22T01:03:15.737Z,13.90
2019-05-22T01:04:21.880Z,13.80
2019-05-22T01:05:28.495Z,13.80
2019-05-22T01:06:32.495Z,13.80
2019-05-22T01:07:41.678Z,13.80
2019-05-22T01:08:45.401Z,13.90
2019-05-22T01:09:51.219Z,13.80
2019-05-22T01:10:56.193Z,13.80
2019-05-22T01:11:59.931Z,13.80
2019-05-22T01:13:03.860Z,13.80
2019-05-22T01:14:08.742Z,13.80
2019-05-22T01:15:14.326Z,13.80
2019-05-22T01:16:16.980Z,13.80
2019-05-22T01:17:23.641Z,13.70
2019-05-22T01:18:27.770Z,13.70
2019-05-22T01:19:33.078Z,13.70
2019-05-22T01:20:36.943Z,13.70
2019-05-22T01:21:39.731Z,13.70
2019-05-22T01:22:42.593Z,13.70
2019-05-22T01:23:47.406Z,13.70
2019-05-22T01:24:53.290Z,13.70
2019-05-22T01:25:57.073Z,13.70
2019-05-22T01:27:01.272Z,13.70
2019-05-22T01:28:05.984Z,13.70
2019-05-22T01:29:09.755Z,13.70
2019-05-22T01:30:21.374Z,13.70
2019-05-22T01:31:37.795Z,13.70
2019-05-22T01:32:47.177Z,13.70
2019-05-22T01:33:53.588Z,13.70
2019-05-22T01:34:56.848Z,13.70
2019-05-22T01:36:22.980Z,13.70
2019-05-22T01:37:27.181Z,13.70
2019-05-22T01:38:30.469Z,13.70
2019-05-22T01:39:55.488Z,13.70
2019-05-22T01:41:00.560Z,13.70
2019-05-22T01:42:04.379Z,13.70
2019-05-22T01:43:09.116Z,13.70
2019-05-22T01:44:13.078Z,13.70
2019-05-22T01:45:17.988Z,13.70
2019-05-22T01:46:21.691Z,13.70
2019-05-22T01:47:53.082Z,13.70
2019-05-22T01:48:59.276Z,13.70
2019-05-22T01:50:02.663Z,13.70
2019-05-22T01:51:05.743Z,13.70
2019-05-22T01:52:10.911Z,13.60
2019-05-22T01:53:15.260Z,13.70
2019-05-22T01:54:19.241Z,13.70
2019-05-22T01:55:24.239Z,13.70
2019-05-22T01:56:29.212Z,13.70
2019-05-22T01:57:32.182Z,13.70
2019-05-22T01:58:36.688Z,13.70
2019-05-22T01:59:41.254Z,13.70
2019-05-22T02:00:44.474Z,13.70
2019-05-22T02:01:48.023Z,13.70
2019-05-22T02:02:51.855Z,13.70
2019-05-22T02:03:56.040Z,13.70
2019-05-22T02:04:58.811Z,13.70
2019-05-22T02:06:01.514Z,13.70
2019-05-22T02:07:04.736Z,13.70
2019-05-22T02:08:08.487Z,13.70
2019-05-22T02:09:27.990Z,13.80
2019-05-22T02:10:34.279Z,13.70
2019-05-22T02:11:39.772Z,13.70
2019-05-22T02:12:50.591Z,13.70
2019-05-22T02:14:03.062Z,13.70
2019-05-22T02:15:07.533Z,13.60
2019-05-22T02:16:12.039Z,13.70
2019-05-22T02:17:15.783Z,13.70
2019-05-22T02:18:18.872Z,13.70
2019-05-22T02:19:21.855Z,13.70
2019-05-22T02:20:26.239Z,13.70
2019-05-22T02:21:29.232Z,13.70
2019-05-22T02:22:33.434Z,13.70
2019-05-22T02:23:37.436Z,13.70
2019-05-22T02:24:40.689Z,13.70
2019-05-22T02:25:43.717Z,13.70
2019-05-22T02:26:47.030Z,13.70
2019-05-22T02:27:50.013Z,13.60
2019-05-22T02:28:53.687Z,13.60
2019-05-22T02:29:58.382Z,13.60
2019-05-22T02:31:01.517Z,13.60
2019-05-22T02:32:06.081Z,13.70
2019-05-22T02:33:10.282Z,13.60
2019-05-22T02:34:12.847Z,13.60
2019-05-22T02:35:15.541Z,13.70
2019-05-22T02:36:18.958Z,13.70
2019-05-22T02:37:22.386Z,13.60
2019-05-22T02:38:26.076Z,13.60
2019-05-22T02:39:31.488Z,13.60
2019-05-22T02:40:36.702Z,13.60
2019-05-22T02:41:45.452Z,13.60
2019-05-22T02:42:49.943Z,13.60
2019-05-22T02:43:54.062Z,13.60
2019-05-22T02:44:57.057Z,13.60
2019-05-22T02:46:00.095Z,13.60
2019-05-22T02:47:18.013Z,13.60
2019-05-22T02:48:10.895Z,13.60
2019-05-22T02:49:14.376Z,13.60
2019-05-22T02:50:17.556Z,13.60
2019-05-22T02:51:19.967Z,13.60
2019-05-22T02:52:23.429Z,13.60
2019-05-22T02:53:26.592Z,13.60
2019-05-22T02:54:30.999Z,13.60
2019-05-22T02:55:33.701Z,13.60
2019-05-22T02:56:36.269Z,13.60
2019-05-22T02:57:38.966Z,13.60
2019-05-22T02:58:41.818Z,13.50
2019-05-22T02:59:44.808Z,13.60
2019-05-22T03:01:01.586Z,13.60
2019-05-22T03:02:06.265Z,13.60
2019-05-22T03:03:09.379Z,13.60
2019-05-22T03:04:15.974Z,13.60
2019-05-22T03:05:19.468Z,13.60
2019-05-22T03:06:22.465Z,13.60
2019-05-22T03:07:26.095Z,13.50
2019-05-22T03:08:51.833Z,13.50
2019-05-22T03:09:54.216Z,13.50
2019-05-22T03:10:57.290Z,13.50
2019-05-22T03:12:05.975Z,13.50
2019-05-22T03:13:08.337Z,13.50
2019-05-22T03:14:12.752Z,13.50
2019-05-22T03:15:17.384Z,13.50
2019-05-22T03:16:21.348Z,13.50
2019-05-22T03:17:29.906Z,13.50
2019-05-22T03:18:33.786Z,13.60
2019-05-22T03:19:41.999Z,13.60
2019-05-22T03:20:46.035Z,13.60
2019-05-22T03:21:49.296Z,13.60
2019-05-22T03:23:32.917Z,13.60
2019-05-22T03:24:35.984Z,13.60
2019-05-22T03:25:38.384Z,13.60
2019-05-22T03:26:46.697Z,13.50
2019-05-22T03:27:52.002Z,13.50
2019-05-22T03:28:55.503Z,13.50
2019-05-22T03:29:58.783Z,13.50
2019-05-22T03:31:01.736Z,13.50
2019-05-22T03:32:05.611Z,13.50
2019-05-22T03:33:11.026Z,13.50
2019-05-22T03:34:13.996Z,13.50
2019-05-22T03:35:17.354Z,13.40
2019-05-22T03:36:21.643Z,13.40
2019-05-22T03:37:24.484Z,13.40
2019-05-22T03:38:26.999Z,13.40
2019-05-22T03:39:29.479Z,13.50
2019-05-22T03:40:36.403Z,13.50
2019-05-22T03:41:40.530Z,13.40
2019-05-22T03:42:43.211Z,13.40
2019-05-22T03:43:47.834Z,13.40
2019-05-22T03:44:51.959Z,13.40
2019-05-22T03:45:58.364Z,13.40
2019-05-22T03:47:01.163Z,13.40
2019-05-22T03:48:05.680Z,13.40
2019-05-22T03:49:28.118Z,13.40
2019-05-22T03:50:15.741Z,13.40
2019-05-22T03:51:18.293Z,13.40
2019-05-22T03:52:21.473Z,13.40
2019-05-22T03:53:23.962Z,13.40
2019-05-22T03:54:26.315Z,13.40
2019-05-22T03:55:29.085Z,13.40
2019-05-22T03:56:33.874Z,13.40
2019-05-22T03:57:37.417Z,13.40
2019-05-22T03:58:40.238Z,13.40
2019-05-22T03:59:42.909Z,13.40
2019-05-22T04:00:46.780Z,13.40
2019-05-22T04:01:49.266Z,13.40
2019-05-22T04:02:52.627Z,13.40
2019-05-22T04:03:56.085Z,13.40
2019-05-22T04:04:58.991Z,13.40
2019-05-22T04:06:03.343Z,13.40
2019-05-22T04:07:10.129Z,13.40
2019-05-22T04:08:14.800Z,13.40
2019-05-22T04:09:19.913Z,13.40
2019-05-22T04:10:25.447Z,13.40
2019-05-22T04:11:34.239Z,13.40
2019-05-22T04:12:36.883Z,13.40
2019-05-22T04:13:40.404Z,13.40
2019-05-22T04:14:45.391Z,13.40
2019-05-22T04:15:48.397Z,13.40
2019-05-22T04:16:53.319Z,13.40
2019-05-22T04:18:04.417Z,13.40
2019-05-22T04:19:07.326Z,13.40
2019-05-22T04:20:13.794Z,13.40
2019-05-22T04:21:16.269Z,13.40
2019-05-22T04:22:19.148Z,13.40
2019-05-22T04:23:21.847Z,13.40
2019-05-22T04:24:25.031Z,13.30
2019-05-22T04:25:27.414Z,13.40
2019-05-22T04:26:29.994Z,13.30
2019-05-22T04:27:32.879Z,13.30
2019-05-22T04:28:41.380Z,13.40
2019-05-22T04:29:44.589Z,13.30
2019-05-22T04:30:47.572Z,13.30
2019-05-22T04:32:06.146Z,13.30
2019-05-22T04:33:08.932Z,13.30
2019-05-22T04:34:11.435Z,13.30
2019-05-22T04:35:18.895Z,13.30
2019-05-22T04:36:23.539Z,13.30
2019-05-22T04:37:26.119Z,13.30
2019-05-22T04:38:29.970Z,13.30
2019-05-22T04:39:34.743Z,13.40
2019-05-22T04:40:49.396Z,13.30
2019-05-22T04:41:53.192Z,13.40
2019-05-22T04:42:57.240Z,13.30
2019-05-22T04:44:00.487Z,13.30
2019-05-22T04:45:14.587Z,13.30
2019-05-22T04:46:17.955Z,13.30
2019-05-22T04:47:20.519Z,13.30
2019-05-22T04:48:24.618Z,13.30
2019-05-22T04:49:27.289Z,13.30
2019-05-22T04:50:30.383Z,13.30
2019-05-22T04:51:33.882Z,13.30
2019-05-22T04:52:36.564Z,13.30
2019-05-22T04:53:39.474Z,13.30
2019-05-22T04:54:41.845Z,13.30
2019-05-22T04:55:44.945Z,13.20
2019-05-22T04:56:48.327Z,13.20
2019-05-22T04:57:51.110Z,13.20
2019-05-22T04:58:54.376Z,13.30
2019-05-22T04:59:56.809Z,13.30
2019-05-22T05:00:59.190Z,13.30
2019-05-22T05:02:03.058Z,13.30
2019-05-22T05:03:06.222Z,13.30
2019-05-22T05:04:09.870Z,13.30
2019-05-22T05:05:15.606Z,13.30
2019-05-22T05:06:20.591Z,13.20
2019-05-22T05:07:23.663Z,13.20
2019-05-22T05:08:27.083Z,13.20
2019-05-22T05:09:30.879Z,13.30
2019-05-22T05:10:33.646Z,13.20
2019-05-22T05:11:36.774Z,13.20
2019-05-22T05:12:41.721Z,13.20
2019-05-22T05:13:44.080Z,13.20
2019-05-22T05:14:46.485Z,13.20
2019-05-22T05:15:49.086Z,13.20
2019-05-22T05:16:51.700Z,13.20
2019-05-22T05:17:54.109Z,13.20
2019-05-22T05:18:56.528Z,13.20
2019-05-22T05:19:58.988Z,13.20
2019-05-22T05:21:01.299Z,13.20
2019-05-22T05:22:04.641Z,13.20
2019-05-22T05:23:07.366Z,13.20
2019-05-22T05:24:09.862Z,13.20
2019-05-22T05:25:13.505Z,13.30
2019-05-22T05:26:16.084Z,13.30
2019-05-22T05:27:18.799Z,13.30
2019-05-22T05:28:22.517Z,13.30
2019-05-22T05:29:26.679Z,13.30
2019-05-22T05:30:29.726Z,13.30
2019-05-22T05:31:33.370Z,13.30
2019-05-22T05:32:36.198Z,13.40
2019-05-22T05:34:16.640Z,13.30
2019-05-22T05:35:19.841Z,13.30
2019-05-22T05:36:22.564Z,13.30
2019-05-22T05:37:25.644Z,13.30
2019-05-22T05:38:35.317Z,13.30
2019-05-22T05:40:28.363Z,13.30
2019-05-22T05:41:30.929Z,13.30
2019-05-22T05:42:33.327Z,13.30
2019-05-22T05:43:35.961Z,13.30
2019-05-22T05:44:38.425Z,13.30
2019-05-22T05:45:43.184Z,13.30
2019-05-22T05:46:46.656Z,13.20
2019-05-22T05:47:50.439Z,13.30
2019-05-22T05:48:54.364Z,13.30
2019-05-22T05:49:57.963Z,13.30
2019-05-22T05:51:39.836Z,13.30
2019-05-22T05:52:43.335Z,13.30
2019-05-22T05:53:57.740Z,13.30
2019-05-22T05:55:01.914Z,13.30
2019-05-22T05:56:15.899Z,13.30
2019-05-22T05:58:12.751Z,13.30
2019-05-22T05:59:15.575Z,13.30
2019-05-22T06:00:21.727Z,13.30
2019-05-22T06:01:36.358Z,13.30
2019-05-22T06:02:38.982Z,13.30
2019-05-22T06:03:41.702Z,13.30
2019-05-22T06:04:45.524Z,13.30
2019-05-22T06:05:48.123Z,13.30
2019-05-22T06:07:17.736Z,13.30
2019-05-22T06:08:20.444Z,13.30
2019-05-22T06:09:25.281Z,13.30
2019-05-22T06:11:08.496Z,13.30
2019-05-22T06:12:12.406Z,13.30
2019-05-22T06:13:15.131Z,13.30
2019-05-22T06:14:23.119Z,13.30
2019-05-22T06:15:46.498Z,13.30
2019-05-22T06:17:20.298Z,13.40
2019-05-22T06:18:35.773Z,13.40
2019-05-22T06:19:41.770Z,13.30
2019-05-22T06:21:01.197Z,13.30
2019-05-22T06:21:50.357Z,13.30
2019-05-22T06:23:45.449Z,13.30
2019-05-22T06:25:05.542Z,13.30
2019-05-22T06:26:13.542Z,13.30
2019-05-22T06:27:22.331Z,13.30
2019-05-22T06:28:27.831Z,13.30
2019-05-22T06:29:52.281Z,13.30
2019-05-22T06:30:55.220Z,13.30
2019-05-22T06:32:35.612Z,13.40
2019-05-22T06:33:38.562Z,13.40
2019-05-22T06:34:40.978Z,13.30
2019-05-22T06:35:45.220Z,13.30
2019-05-22T06:36:48.017Z,13.30
2019-05-22T06:38:14.324Z,13.30
2019-05-22T06:39:16.770Z,13.30
2019-05-22T06:40:20.564Z,13.30
2019-05-22T06:41:26.550Z,13.30
2019-05-22T06:42:30.079Z,13.40
2019-05-22T06:44:42.231Z,13.40
2019-05-22T06:45:44.661Z,13.40
2019-05-22T06:46:55.403Z,13.30
2019-05-22T06:48:08.514Z,13.30
2019-05-22T06:49:41.429Z,13.30
2019-05-22T06:50:44.076Z,13.30
2019-05-22T06:51:46.553Z,13.40
2019-05-22T06:52:48.976Z,13.40
2019-05-22T06:53:51.487Z,13.30
2019-05-22T06:54:55.011Z,13.30
2019-05-22T06:55:57.731Z,13.30
2019-05-22T06:57:04.800Z,13.30
2019-05-22T06:58:07.410Z,13.30
2019-05-22T06:59:10.540Z,13.30
2019-05-22T07:00:15.771Z,13.30
2019-05-22T07:01:19.927Z,13.30
2019-05-22T07:02:23.109Z,13.30
2019-05-22T07:03:26.503Z,13.30
2019-05-22T07:04:29.954Z,13.30
2019-05-22T07:05:33.068Z,13.30
2019-05-22T07:06:36.218Z,13.30
2019-05-22T07:07:38.755Z,13.30
2019-05-22T07:08:42.468Z,13.30
2019-05-22T07:09:45.901Z,13.30
2019-05-22T07:10:48.535Z,13.30
2019-05-22T07:11:52.280Z,13.40
2019-05-22T07:12:55.547Z,13.30
2019-05-22T07:13:59.060Z,13.30
2019-05-22T07:15:29.998Z,13.30
2019-05-22T07:16:33.629Z,13.30
2019-05-22T07:17:36.911Z,13.30
2019-05-22T07:18:40.417Z,13.30
2019-05-22T07:19:43.154Z,13.30
2019-05-22T07:20:48.904Z,13.30
2019-05-22T07:21:51.969Z,13.30
2019-05-22T07:22:54.609Z,13.30
2019-05-22T07:23:57.898Z,13.30
2019-05-22T07:25:00.757Z,13.30
2019-05-22T07:26:03.592Z,13.30
2019-05-22T07:27:35.249Z,13.20
2019-05-22T07:28:38.340Z,13.20
2019-05-22T07:29:40.759Z,13.20
2019-05-22T07:30:44.532Z,13.30
2019-05-22T07:31:47.406Z,13.30
2019-05-22T07:32:50.086Z,13.30
2019-05-22T07:33:53.212Z,13.30
2019-05-22T07:34:55.876Z,13.30
2019-05-22T07:36:17.035Z,13.30
2019-05-22T07:37:05.725Z,13.30
2019-05-22T07:38:08.112Z,13.30
2019-05-22T07:39:10.962Z,13.30
2019-05-22T07:40:14.356Z,13.40
2019-05-22T07:41:16.804Z,13.40
2019-05-22T07:42:19.481Z,13.30
2019-05-22T07:43:23.104Z,13.40
2019-05-22T07:44:27.505Z,13.40
2019-05-22T07:45:31.203Z,13.40
2019-05-22T07:46:35.728Z,13.40
2019-05-22T07:47:38.864Z,13.40
2019-05-22T07:48:41.497Z,13.40
2019-05-22T07:49:44.021Z,13.40
2019-05-22T07:50:49.382Z,13.40
2019-05-22T07:52:00.613Z,13.40
2019-05-22T07:52:58.091Z,13.50
2019-05-22T07:54:00.981Z,13.50
2019-05-22T07:55:04.461Z,13.50
2019-05-22T07:56:11.625Z,13.50
2019-05-22T07:57:19.063Z,13.50
2019-05-22T07:58:22.862Z,13.50
2019-05-22T07:59:25.715Z,13.50
2019-05-22T08:00:28.467Z,13.50
2019-05-22T08:01:32.818Z,13.50
2019-05-22T08:02:40.609Z,13.50
2019-05-22T08:03:44.602Z,13.50
2019-05-22T08:04:47.437Z,13.50
2019-05-22T08:05:53.493Z,13.50
2019-05-22T08:06:56.805Z,13.50
2019-05-22T08:07:59.517Z,13.50
2019-05-22T08:09:03.124Z,13.50
2019-05-22T08:10:08.410Z,13.50
2019-05-22T08:11:13.037Z,13.50
2019-05-22T08:12:19.738Z,13.50
2019-05-22T08:13:23.681Z,13.50
2019-05-22T08:14:27.133Z,13.50
2019-05-22T08:15:30.821Z,13.50
2019-05-22T08:16:34.210Z,13.50
2019-05-22T08:17:37.302Z,13.50
2019-05-22T08:18:39.718Z,13.50
2019-05-22T08:19:42.231Z,13.50
2019-05-22T08:20:44.841Z,13.50
2019-05-22T08:21:47.248Z,13.50
2019-05-22T08:22:50.604Z,13.50
2019-05-22T08:23:54.043Z,13.50
2019-05-22T08:24:56.890Z,13.50
2019-05-22T08:26:01.309Z,13.40
2019-05-22T08:27:04.803Z,13.40
2019-05-22T08:28:08.970Z,13.40
2019-05-22T08:29:13.256Z,13.40
2019-05-22T08:30:16.443Z,13.40
2019-05-22T08:31:22.248Z,13.40
2019-05-22T08:32:26.796Z,13.40
2019-05-22T08:33:31.536Z,13.40
2019-05-22T08:34:36.659Z,13.40
2019-05-22T08:35:48.171Z,13.40
2019-05-22T08:37:12.987Z,13.40
2019-05-22T08:38:17.031Z,13.40
2019-05-22T08:39:20.239Z,13.40
2019-05-22T08:40:22.977Z,13.50
2019-05-22T08:41:31.014Z,13.50
2019-05-22T08:42:35.441Z,13.50
2019-05-22T08:44:03.478Z,13.60
2019-05-22T08:44:46.497Z,13.50
2019-05-22T08:45:51.578Z,13.60
2019-05-22T08:46:54.400Z,13.60
2019-05-22T08:47:57.752Z,13.60
2019-05-22T08:49:01.063Z,13.60
2019-05-22T08:50:04.782Z,13.60
2019-05-22T08:51:07.465Z,13.60
2019-05-22T08:52:23.035Z,13.70
2019-05-22T08:53:19.125Z,13.70
2019-05-22T08:54:21.681Z,13.70
2019-05-22T08:55:25.896Z,13.60
2019-05-22T08:56:32.508Z,13.60
2019-05-22T08:57:36.358Z,13.60
2019-05-22T08:58:40.405Z,13.60
2019-05-22T08:59:43.306Z,13.60
2019-05-22T09:00:46.802Z,13.60
2019-05-22T09:01:49.223Z,13.60
2019-05-22T09:02:51.756Z,13.60
2019-05-22T09:03:55.221Z,13.50
2019-05-22T09:04:57.820Z,13.50
2019-05-22T09:06:00.232Z,13.60
2019-05-22T09:07:02.674Z,13.60
2019-05-22T09:08:05.377Z,13.50
2019-05-22T09:09:07.957Z,13.50
2019-05-22T09:10:12.000Z,13.50
2019-05-22T09:11:14.479Z,13.50
2019-05-22T09:12:19.036Z,13.50
2019-05-22T09:13:21.663Z,13.50
2019-05-22T09:14:24.128Z,13.50
2019-05-22T09:15:27.947Z,13.60
2019-05-22T09:16:30.659Z,13.60
2019-05-22T09:17:33.268Z,13.50
2019-05-22T09:18:36.121Z,13.50
2019-05-22T09:19:38.585Z,13.50
2019-05-22T09:20:49.314Z,13.50
2019-05-22T09:21:46.453Z,13.50
2019-05-22T09:22:48.871Z,13.50
2019-05-22T09:23:51.270Z,13.50
2019-05-22T09:24:53.884Z,13.50
2019-05-22T09:25:57.593Z,13.40
2019-05-22T09:27:02.832Z,13.40
2019-05-22T09:28:05.084Z,13.40
2019-05-22T09:29:07.719Z,13.40
2019-05-22T09:30:11.022Z,13.40
2019-05-22T09:31:13.589Z,13.40
2019-05-22T09:32:16.024Z,13.40
2019-05-22T09:33:18.843Z,13.40
2019-05-22T09:34:21.552Z,13.50
2019-05-22T09:35:24.458Z,13.50
2019-05-22T09:36:26.963Z,13.50
2019-05-22T09:37:30.228Z,13.60
2019-05-22T09:38:32.838Z,13.60
2019-05-22T09:39:35.967Z,13.60
2019-05-22T09:40:39.167Z,13.60
2019-05-22T09:41:41.649Z,13.70
2019-05-22T09:42:44.383Z,13.70
2019-05-22T09:43:46.918Z,13.70
2019-05-22T09:44:51.240Z,13.70
2019-05-22T09:45:53.865Z,13.80
2019-05-22T09:46:56.523Z,13.80
2019-05-22T09:47:59.337Z,13.80
2019-05-22T09:49:01.943Z,13.80
2019-05-22T09:50:06.136Z,13.80
2019-05-22T09:51:08.980Z,13.90
2019-05-22T09:52:11.603Z,13.80
2019-05-22T09:53:14.727Z,13.80
2019-05-22T09:54:18.995Z,13.80
2019-05-22T09:55:22.434Z,13.80
2019-05-22T09:56:26.432Z,13.80
2019-05-22T09:57:29.505Z,13.80
2019-05-22T09:58:32.385Z,13.80
2019-05-22T09:59:35.010Z,13.80
2019-05-22T10:00:38.249Z,13.80
2019-05-22T10:01:46.658Z,13.80
2019-05-22T10:03:10.184Z,13.70
2019-05-22T10:04:13.430Z,13.70
2019-05-22T10:05:16.223Z,13.60
2019-05-22T10:06:21.602Z,13.70
2019-05-22T10:07:23.341Z,13.70
2019-05-22T10:08:38.859Z,13.60
2019-05-22T10:10:09.509Z,13.60
2019-05-22T10:11:13.390Z,13.60
2019-05-22T10:12:16.352Z,13.60
2019-05-22T10:13:19.460Z,13.70
2019-05-22T10:14:27.871Z,13.60
2019-05-22T10:15:39.448Z,13.70
2019-05-22T10:16:52.227Z,13.80
2019-05-22T10:17:55.873Z,13.80
2019-05-22T10:18:58.499Z,13.80
2019-05-22T10:20:01.244Z,13.80
2019-05-22T10:21:04.030Z,13.90
2019-05-22T10:22:07.807Z,13.90
2019-05-22T10:23:15.957Z,14.00
2019-05-22T10:24:18.643Z,14.00
2019-05-22T10:25:21.509Z,14.00
2019-05-22T10:26:24.254Z,14.00
2019-05-22T10:27:27.068Z,14.10
2019-05-22T10:28:29.885Z,14.10
2019-05-22T10:29:32.999Z,14.20
2019-05-22T10:30:36.146Z,14.20
2019-05-22T10:31:39.222Z,14.20
2019-05-22T10:32:42.151Z,14.20
2019-05-22T10:33:44.788Z,14.20
2019-05-22T10:34:47.197Z,14.20
2019-05-22T10:35:50.863Z,14.20
2019-05-22T10:36:53.750Z,14.20
2019-05-22T10:37:56.836Z,14.30
2019-05-22T10:38:59.537Z,14.30
2019-05-22T10:40:03.072Z,14.30
2019-05-22T10:41:05.812Z,14.30
2019-05-22T10:42:11.738Z,14.30
2019-05-22T10:43:14.586Z,14.30
2019-05-22T10:44:17.362Z,14.40
2019-05-22T10:45:30.475Z,14.50
2019-05-22T10:47:02.578Z,14.50
2019-05-22T10:48:10.343Z,14.60
2019-05-22T10:49:12.770Z,14.60
2019-05-22T10:50:15.665Z,14.60
2019-05-22T10:51:18.580Z,14.70
2019-05-22T10:52:21.443Z,14.70
2019-05-22T10:53:33.651Z,14.70
2019-05-22T10:54:29.980Z,14.70
2019-05-22T10:55:33.834Z,14.70
2019-05-22T10:56:36.275Z,14.70
2019-05-22T10:57:40.844Z,14.70
2019-05-22T10:58:43.251Z,14.70
2019-05-22T10:59:46.013Z,14.70
2019-05-22T11:00:48.464Z,14.80
2019-05-22T11:01:51.178Z,14.80
2019-05-22T11:02:55.313Z,14.80
2019-05-22T11:03:57.858Z,14.70
2019-05-22T11:05:00.941Z,14.70
2019-05-22T11:06:07.522Z,14.70
2019-05-22T11:07:09.597Z,14.70
2019-05-22T11:08:12.500Z,14.60
2019-05-22T11:09:15.678Z,14.60
2019-05-22T11:10:19.377Z,14.60
2019-05-22T11:11:22.826Z,14.60
2019-05-22T11:12:25.954Z,14.60
2019-05-22T11:13:29.314Z,14.60
2019-05-22T11:14:33.266Z,14.60
2019-05-22T11:15:36.008Z,14.50
2019-05-22T11:16:38.648Z,14.50
2019-05-22T11:17:41.346Z,14.50
2019-05-22T11:18:44.652Z,14.50
2019-05-22T11:19:47.389Z,14.50
2019-05-22T11:20:50.642Z,14.50
2019-05-22T11:21:56.819Z,14.50
2019-05-22T11:22:58.230Z,14.50
2019-05-22T11:24:00.758Z,14.50
2019-05-22T11:25:04.350Z,14.60
2019-05-22T11:26:07.328Z,14.60
2019-05-22T11:27:09.863Z,14.60
2019-05-22T11:28:12.275Z,14.60
2019-05-22T11:29:15.018Z,14.60
2019-05-22T11:30:19.154Z,14.70
2019-05-22T11:31:22.801Z,14.80
2019-05-22T11:32:25.821Z,14.70
2019-05-22T11:33:28.427Z,14.90
2019-05-22T11:34:31.178Z,14.90
2019-05-22T11:35:34.733Z,14.90
2019-05-22T11:36:37.630Z,14.90
2019-05-22T11:37:42.034Z,15.00
2019-05-22T11:38:44.659Z,15.00
2019-05-22T11:39:47.414Z,15.10
2019-05-22T11:40:50.570Z,15.10
2019-05-22T11:41:53.361Z,15.20
2019-05-22T11:42:55.791Z,15.20
2019-05-22T11:43:58.262Z,15.30
2019-05-22T11:46:06.686Z,15.30
2019-05-22T11:47:10.433Z,15.40
2019-05-22T11:48:12.885Z,15.40
2019-05-22T11:49:15.797Z,15.40
2019-05-22T11:50:18.242Z,15.40
2019-05-22T11:51:21.682Z,15.40
2019-05-22T11:52:27.061Z,15.50
2019-05-22T11:53:29.679Z,15.50
2019-05-22T11:54:33.303Z,15.50
2019-05-22T11:55:44.987Z,15.50
2019-05-22T11:56:40.208Z,15.50
2019-05-22T11:57:44.191Z,15.50
2019-05-22T11:58:47.214Z,15.40
2019-05-22T11:59:49.681Z,15.50
2019-05-22T12:00:52.095Z,15.50
2019-05-22T12:01:54.941Z,15.60
2019-05-22T12:03:00.628Z,15.60
2019-05-22T12:04:03.505Z,15.60
2019-05-22T12:05:06.840Z,15.50
2019-05-22T12:06:09.641Z,15.50
2019-05-22T12:07:12.216Z,15.50
2019-05-22T12:08:15.860Z,15.50
2019-05-22T12:09:18.558Z,15.60
2019-05-22T12:10:22.638Z,15.50
2019-05-22T12:11:27.042Z,15.60
2019-05-22T12:12:30.443Z,15.60
2019-05-22T12:13:33.903Z,15.60
2019-05-22T12:14:36.613Z,15.70
2019-05-22T12:15:40.095Z,15.70
2019-05-22T12:16:43.232Z,15.70
2019-05-22T12:17:45.731Z,15.70
2019-05-22T12:18:48.540Z,15.60
2019-05-22T12:19:51.366Z,15.70
2019-05-22T12:20:54.039Z,15.70
2019-05-22T12:21:56.470Z,15.70
2019-05-22T12:22:59.055Z,15.80
2019-05-22T12:24:01.586Z,15.80
2019-05-22T12:25:04.651Z,15.90
2019-05-22T12:26:08.580Z,15.80
2019-05-22T12:27:11.656Z,15.90
2019-05-22T12:28:14.199Z,16.00
2019-05-22T12:29:17.635Z,16.00
2019-05-22T12:30:21.399Z,15.90
2019-05-22T12:31:24.070Z,15.90
2019-05-22T12:32:28.530Z,16.00
2019-05-22T12:33:31.249Z,16.00
2019-05-22T12:34:34.892Z,16.00
2019-05-22T12:35:39.234Z,16.00
2019-05-22T12:36:42.347Z,16.10
2019-05-22T12:37:45.133Z,16.10
2019-05-22T12:38:47.875Z,16.30
2019-05-22T12:39:50.972Z,16.30
2019-05-22T12:40:53.481Z,16.20
2019-05-22T12:41:57.651Z,16.30
2019-05-22T12:43:00.750Z,16.30
2019-05-22T12:44:04.594Z,16.30
2019-05-22T12:45:08.543Z,16.20
2019-05-22T12:46:12.022Z,16.20
2019-05-22T12:47:14.982Z,16.20
2019-05-22T12:48:17.922Z,16.10
2019-05-22T12:49:20.528Z,16.10
2019-05-22T12:50:26.629Z,16.00
2019-05-22T12:51:31.141Z,15.90
2019-05-22T12:52:33.772Z,15.90
2019-05-22T12:53:37.001Z,15.90
2019-05-22T12:54:46.983Z,15.90
2019-05-22T12:55:44.524Z,15.90
2019-05-22T12:56:48.193Z,16.00
2019-05-22T12:57:51.582Z,16.00
2019-05-22T12:58:55.118Z,16.00
2019-05-22T13:00:02.054Z,16.00
2019-05-22T13:01:03.479Z,16.00
2019-05-22T13:02:09.305Z,16.00
2019-05-22T13:03:13.362Z,16.00
2019-05-22T13:04:16.411Z,16.00
2019-05-22T13:05:20.052Z,16.00
2019-05-22T13:06:22.480Z,16.00
2019-05-22T13:07:26.935Z,16.10
2019-05-22T13:08:32.554Z,16.10
2019-05-22T13:09:36.012Z,16.20
2019-05-22T13:10:38.810Z,16.10
2019-05-22T13:11:41.905Z,16.10
2019-05-22T13:12:44.740Z,16.10
2019-05-22T13:13:47.352Z,16.00
2019-05-22T13:14:50.200Z,16.00
2019-05-22T13:15:53.083Z,16.00
2019-05-22T13:16:57.192Z,16.00
2019-05-22T13:17:59.852Z,15.90
2019-05-22T13:19:02.279Z,15.90
2019-05-22T13:20:07.509Z,15.90
2019-05-22T13:21:11.783Z,15.80
2019-05-22T13:22:15.811Z,15.90
2019-05-22T13:23:22.005Z,15.90
2019-05-22T13:24:27.565Z,15.90
2019-05-22T13:25:33.311Z,15.90
2019-05-22T13:26:37.011Z,15.80
2019-05-22T13:27:40.949Z,15.80
2019-05-22T13:28:44.617Z,15.80
2019-05-22T13:29:48.798Z,15.90
2019-05-22T13:30:54.361Z,15.90
2019-05-22T13:31:58.839Z,15.90
2019-05-22T13:33:01.946Z,16.00
2019-05-22T13:34:04.483Z,16.00
2019-05-22T13:35:08.439Z,16.00
2019-05-22T13:36:13.717Z,15.90
2019-05-22T13:37:16.921Z,15.90
2019-05-22T13:38:19.470Z,16.10
2019-05-22T13:39:23.990Z,16.10
2019-05-22T13:40:28.319Z,16.20
2019-05-22T13:41:30.846Z,16.10
2019-05-22T13:42:33.428Z,16.20
2019-05-22T13:43:36.350Z,16.20
2019-05-22T13:44:40.387Z,16.20
2019-05-22T13:45:43.021Z,16.30
2019-05-22T13:46:45.940Z,16.30
2019-05-22T13:47:48.757Z,16.40
2019-05-22T13:48:51.308Z,16.40
2019-05-22T13:49:54.560Z,16.40
2019-05-22T13:50:58.568Z,16.40
2019-05-22T13:52:01.333Z,16.40
2019-05-22T13:53:05.874Z,16.50
2019-05-22T13:54:09.536Z,16.50
2019-05-22T13:55:13.880Z,16.50
2019-05-22T13:56:16.921Z,16.60
2019-05-22T13:57:19.856Z,16.60
2019-05-22T13:58:22.689Z,16.50
2019-05-22T13:59:25.613Z,16.50
2019-05-22T14:00:28.585Z,16.40
2019-05-22T14:01:31.437Z,16.30